Frederick, IL

11:06 AM CDT on October 17, 2019 (GMT -0500)
Beardstown | | Change Station
Active Advisory: Flood Warning

Elev 472 ft 40.00 °N, 90.36 °W | Updated 5 seconds ago

Clear
Clear
52.3 °F
Feels Like 52.3 °F
N
2.3
Wind Variable Wind from SE
Gusts 1.6 mph

Today
High -- | Low -- °F
--% Chance of Precip.
Yesterday
High -- | Low -- °F
Precip. -- in
Pressure 30.11 in
Visibility 10.0 miles
Clouds Clear
Dew Point 41 °F
Humidity 66%
Rainfall 0.00 in
Snow Depth Not available.
7:14 AM 6:19 PM
Waning Gibbous, 87% visible
METAR KIJX 171555Z AUTO 26007KT 10SM CLR 10/03 A3011 RMK AO2 T01030026
Pressure 30.11 in
Visibility 10.0 miles
Clouds Clear
Dew Point 41 °F
Humidity 66%
Rainfall 0.00 in
Snow Depth Not available.
7:14 AM 6:19 PM
Waning Gibbous, 87% visible
METAR KIJX 171555Z AUTO 26007KT 10SM CLR 10/03 A3011 RMK AO2 T01030026

Get Your Daily Forecast Email!

Thanks for signing up!

Be on the lookout for a verification email in your inbox.

You'll start receiving severe weather alerts in your inbox..

×

10-Day Weather Forecast

Almanac

Astronomy

Oct. 17, 2019 Rise Set
Actual Time
Civil Twilight
Nautical Twilight
Astronomical Twilight
Moon
Length of Visible Light
Length of Day
Tomorrow will be .
, % of the Moon is Illuminated

Today's Extremes

State Highs State Lows

Community

WunderPhotos

Category 6

Welcome to Category 6. This is the collective home for Weather Underground's featured writeups by Dr. Jeff Masters (right), Bob Henson (left), Chris Burt, and other regular contributors.

Nearby

Air Quality

  Air Quality AQ Index Pollutant
Not available.

Snow Depth

Station Depth Elevation

Earthquake Activity

City Distance Mag. Time & Date
Minimum magnitude displayed is 2.5.

Coastal Water Temperatures

Place Temperature

Stations

Nearby Weather Stations

Station Location Temp. Windchill Dew Point Humidity Wind Precip. Elev Updated Type
                   

Watches & Warnings

Flood Warning
Issued: 10:14 AM CDT Oct. 17, 2019 – National Weather Service

The Flood Warning continues for
the Illinois River at Beardstown.
* Until Sunday afternoon.
* At 945 am Thursday the stage was 14.9 feet.
* Flood stage is 14.0 feet.
* Minor flooding is occurring and minor flooding is forecast.
* Forecast... the river will continue to fall to below flood stage by
Sunday morning.
* Impact... at 14.4 feet... seepage problems begin in the Coal Creek
drainage and levee district.


                  Fld observed forecast 6am
location stg stg day time Fri Sat sun

Illinois River
Beardstown 14 14.9 Thu 10 am 14.6 14.3 14.0



Lat... Lon 4018 9023 4012 9017 4008 9037 3999 9046
      3999 9058 4015 9043


Drh